sensor_id;sensor_type;location;lat;lon;timestamp;temperature;humidity
11079;DHT22;5592;49.234;7.268;2022-08-25T00:01:30;14.40;99.90
11079;DHT22;5592;49.234;7.268;2022-08-25T00:03:58;14.40;99.90
11079;DHT22;5592;49.234;7.268;2022-08-25T00:06:24;14.40;99.90
11079;DHT22;5592;49.234;7.268;2022-08-25T00:08:50;14.30;99.90
11079;DHT22;5592;49.234;7.268;2022-08-25T00:11:20;14.40;99.90
11079;DHT22;5592;49.234;7.268;2022-08-25T00:13:49;14.40;99.90
11079;DHT22;5592;49.234;7.268;2022-08-25T00:16:17;14.30;99.90
11079;DHT22;5592;49.234;7.268;2022-08-25T00:18:45;14.40;99.90
11079;DHT22;5592;49.234;7.268;2022-08-25T00:21:13;14.30;99.90
11079;DHT22;5592;49.234;7.268;2022-08-25T00:23:39;14.30;99.90
11079;DHT22;5592;49.234;7.268;2022-08-25T00:26:06;14.30;99.90
11079;DHT22;5592;49.234;7.268;2022-08-25T00:28:31;14.30;99.90
11079;DHT22;5592;49.234;7.268;2022-08-25T00:30:57;14.20;99.90
11079;DHT22;5592;49.234;7.268;2022-08-25T00:33:26;14.20;99.90
11079;DHT22;5592;49.234;7.268;2022-08-25T00:35:52;14.20;99.90
11079;DHT22;5592;49.234;7.268;2022-08-25T00:38:19;14.20;99.90
11079;DHT22;5592;49.234;7.268;2022-08-25T00:40:45;14.20;99.90
11079;DHT22;5592;49.234;7.268;2022-08-25T00:43:11;14.10;99.90
11079;DHT22;5592;49.234;7.268;2022-08-25T00:45:37;14.10;99.90
11079;DHT22;5592;49.234;7.268;2022-08-25T00:48:04;14.10;99.90
11079;DHT22;5592;49.234;7.268;2022-08-25T00:50:31;14.10;99.90
11079;DHT22;5592;49.234;7.268;2022-08-25T00:53:01;14.00;99.90
11079;DHT22;5592;49.234;7.268;2022-08-25T00:55:33;14.00;99.90
11079;DHT22;5592;49.234;7.268;2022-08-25T00:58:10;13.90;99.90
11079;DHT22;5592;49.234;7.268;2022-08-25T01:00:45;13.90;99.90
11079;DHT22;5592;49.234;7.268;2022-08-25T01:03:12;13.80;99.90
11079;DHT22;5592;49.234;7.268;2022-08-25T01:05:39;13.80;99.90
11079;DHT22;5592;49.234;7.268;2022-08-25T01:08:06;13.70;99.90
11079;DHT22;5592;49.234;7.268;2022-08-25T01:10:35;13.70;99.90
11079;DHT22;5592;49.234;7.268;2022-08-25T01:13:27;13.70;99.90
11079;DHT22;5592;49.234;7.268;2022-08-25T01:15:53;13.70;99.90
11079;DHT22;5592;49.234;7.268;2022-08-25T01:18:19;13.70;99.90
11079;DHT22;5592;49.234;7.268;2022-08-25T01:20:51;13.60;99.90
11079;DHT22;5592;49.234;7.268;2022-08-25T01:23:18;13.60;99.90
11079;DHT22;5592;49.234;7.268;2022-08-25T01:26:17;13.60;99.90
11079;DHT22;5592;49.234;7.268;2022-08-25T01:28:43;13.60;99.90
11079;DHT22;5592;49.234;7.268;2022-08-25T01:31:29;13.50;99.90
11079;DHT22;5592;49.234;7.268;2022-08-25T01:33:56;13.50;99.90
11079;DHT22;5592;49.234;7.268;2022-08-25T01:36:23;13.40;99.90
11079;DHT22;5592;49.234;7.268;2022-08-25T01:38:49;13.40;99.90
11079;DHT22;5592;49.234;7.268;2022-08-25T01:41:21;13.40;99.90
11079;DHT22;5592;49.234;7.268;2022-08-25T01:43:50;13.30;99.90
11079;DHT22;5592;49.234;7.268;2022-08-25T01:46:16;13.30;99.90
11079;DHT22;5592;49.234;7.268;2022-08-25T01:48:42;13.30;99.90
11079;DHT22;5592;49.234;7.268;2022-08-25T01:51:07;13.30;99.90
11079;DHT22;5592;49.234;7.268;2022-08-25T01:53:33;13.30;99.90
11079;DHT22;5592;49.234;7.268;2022-08-25T01:56:06;13.20;99.90
11079;DHT22;5592;49.234;7.268;2022-08-25T01:58:35;13.20;99.90
11079;DHT22;5592;49.234;7.268;2022-08-25T02:01:08;13.20;99.90
11079;DHT22;5592;49.234;7.268;2022-08-25T02:03:39;13.10;99.90
11079;DHT22;5592;49.234;7.268;2022-08-25T02:06:05;13.10;99.90
11079;DHT22;5592;49.234;7.268;2022-08-25T02:08:31;13.00;99.90
11079;DHT22;5592;49.234;7.268;2022-08-25T02:10:57;13.00;99.90
11079;DHT22;5592;49.234;7.268;2022-08-25T02:13:23;13.10;99.90
11079;DHT22;5592;49.234;7.268;2022-08-25T02:15:53;13.00;99.90
11079;DHT22;5592;49.234;7.268;2022-08-25T02:18:21;13.00;99.90
11079;DHT22;5592;49.234;7.268;2022-08-25T02:20:47;13.00;99.90
11079;DHT22;5592;49.234;7.268;2022-08-25T02:23:13;12.90;99.90
11079;DHT22;5592;49.234;7.268;2022-08-25T02:25:42;12.90;99.90
11079;DHT22;5592;49.234;7.268;2022-08-25T02:28:09;12.90;99.90
11079;DHT22;5592;49.234;7.268;2022-08-25T02:30:36;12.90;99.90
11079;DHT22;5592;49.234;7.268;2022-08-25T02:33:02;12.90;99.90
11079;DHT22;5592;49.234;7.268;2022-08-25T02:35:28;12.90;99.90
11079;DHT22;5592;49.234;7.268;2022-08-25T02:37:54;12.90;99.90
11079;DHT22;5592;49.234;7.268;2022-08-25T02:40:19;12.90;99.90
11079;DHT22;5592;49.234;7.268;2022-08-25T02:42:46;12.90;99.90
11079;DHT22;5592;49.234;7.268;2022-08-25T02:45:12;12.90;99.90
11079;DHT22;5592;49.234;7.268;2022-08-25T02:47:41;12.90;99.90
11079;DHT22;5592;49.234;7.268;2022-08-25T02:50:08;12.90;99.90
11079;DHT22;5592;49.234;7.268;2022-08-25T02:52:34;12.80;99.90
11079;DHT22;5592;49.234;7.268;2022-08-25T02:55:04;12.80;99.90
11079;DHT22;5592;49.234;7.268;2022-08-25T02:57:31;12.80;99.90
11079;DHT22;5592;49.234;7.268;2022-08-25T02:59:57;12.70;99.90
11079;DHT22;5592;49.234;7.268;2022-08-25T03:02:24;12.70;99.90
11079;DHT22;5592;49.234;7.268;2022-08-25T03:04:51;12.70;99.90
11079;DHT22;5592;49.234;7.268;2022-08-25T03:07:18;12.70;99.90
11079;DHT22;5592;49.234;7.268;2022-08-25T03:09:44;12.60;99.90
11079;DHT22;5592;49.234;7.268;2022-08-25T03:12:10;12.70;99.90
11079;DHT22;5592;49.234;7.268;2022-08-25T03:14:37;12.60;99.90
11079;DHT22;5592;49.234;7.268;2022-08-25T03:17:04;12.60;99.90
11079;DHT22;5592;49.234;7.268;2022-08-25T03:19:30;12.60;99.90
11079;DHT22;5592;49.234;7.268;2022-08-25T03:21:55;12.50;99.90
11079;DHT22;5592;49.234;7.268;2022-08-25T03:24:23;12.50;99.90
11079;DHT22;5592;49.234;7.268;2022-08-25T03:26:49;12.60;99.90
11079;DHT22;5592;49.234;7.268;2022-08-25T03:29:30;12.50;99.90
11079;DHT22;5592;49.234;7.268;2022-08-25T03:31:57;12.50;99.90
11079;DHT22;5592;49.234;7.268;2022-08-25T03:34:24;12.60;99.90
11079;DHT22;5592;49.234;7.268;2022-08-25T03:36:51;12.50;99.90
11079;DHT22;5592;49.234;7.268;2022-08-25T03:39:19;12.50;99.90
11079;DHT22;5592;49.234;7.268;2022-08-25T03:41:48;12.50;99.90
11079;DHT22;5592;49.234;7.268;2022-08-25T03:44:15;12.50;99.90
11079;DHT22;5592;49.234;7.268;2022-08-25T03:46:43;12.40;99.90
11079;DHT22;5592;49.234;7.268;2022-08-25T03:49:15;12.50;99.90
11079;DHT22;5592;49.234;7.268;2022-08-25T03:51:44;12.40;99.90
11079;DHT22;5592;49.234;7.268;2022-08-25T03:54:16;12.40;99.90
11079;DHT22;5592;49.234;7.268;2022-08-25T03:56:42;12.40;99.90
11079;DHT22;5592;49.234;7.268;2022-08-25T03:59:08;12.40;99.90
11079;DHT22;5592;49.234;7.268;2022-08-25T04:01:38;12.30;99.90
11079;DHT22;5592;49.234;7.268;2022-08-25T04:04:06;12.30;99.90
11079;DHT22;5592;49.234;7.268;2022-08-25T04:06:33;12.30;99.90
11079;DHT22;5592;49.234;7.268;2022-08-25T04:08:58;12.20;99.90
11079;DHT22;5592;49.234;7.268;2022-08-25T04:11:26;12.20;99.90
11079;DHT22;5592;49.234;7.268;2022-08-25T04:13:52;12.30;99.90
11079;DHT22;5592;49.234;7.268;2022-08-25T04:16:26;12.20;99.90
11079;DHT22;5592;49.234;7.268;2022-08-25T04:18:54;12.20;99.90
11079;DHT22;5592;49.234;7.268;2022-08-25T04:21:21;12.10;99.90
11079;DHT22;5592;49.234;7.268;2022-08-25T04:23:48;12.20;99.90
11079;DHT22;5592;49.234;7.268;2022-08-25T04:26:16;12.10;99.90
11079;DHT22;5592;49.234;7.268;2022-08-25T04:28:44;12.10;99.90
11079;DHT22;5592;49.234;7.268;2022-08-25T04:31:12;12.10;99.90
11079;DHT22;5592;49.234;7.268;2022-08-25T04:33:39;12.00;99.90
11079;DHT22;5592;49.234;7.268;2022-08-25T04:36:07;12.00;99.90
11079;DHT22;5592;49.234;7.268;2022-08-25T04:38:34;12.00;99.90
11079;DHT22;5592;49.234;7.268;2022-08-25T04:41:01;12.00;99.90
11079;DHT22;5592;49.234;7.268;2022-08-25T04:43:29;12.00;99.90
11079;DHT22;5592;49.234;7.268;2022-08-25T04:45:56;12.00;99.90
11079;DHT22;5592;49.234;7.268;2022-08-25T04:48:21;12.10;99.90
11079;DHT22;5592;49.234;7.268;2022-08-25T04:50:50;12.20;99.90
11079;DHT22;5592;49.234;7.268;2022-08-25T04:53:19;12.10;99.90
11079;DHT22;5592;49.234;7.268;2022-08-25T04:55:47;12.20;99.90
11079;DHT22;5592;49.234;7.268;2022-08-25T04:58:14;12.20;99.90
11079;DHT22;5592;49.234;7.268;2022-08-25T05:00:41;12.20;99.90
11079;DHT22;5592;49.234;7.268;2022-08-25T05:03:08;12.30;99.90
11079;DHT22;5592;49.234;7.268;2022-08-25T05:05:37;12.40;99.90
11079;DHT22;5592;49.234;7.268;2022-08-25T05:08:04;12.40;99.90
11079;DHT22;5592;49.234;7.268;2022-08-25T05:10:33;12.50;99.90
11079;DHT22;5592;49.234;7.268;2022-08-25T05:13:03;12.60;99.90
11079;DHT22;5592;49.234;7.268;2022-08-25T05:15:28;12.70;99.90
11079;DHT22;5592;49.234;7.268;2022-08-25T05:18:12;12.80;99.90
11079;DHT22;5592;49.234;7.268;2022-08-25T05:20:38;12.90;99.90
11079;DHT22;5592;49.234;7.268;2022-08-25T05:23:04;13.10;99.90
11079;DHT22;5592;49.234;7.268;2022-08-25T05:25:31;13.20;99.90
11079;DHT22;5592;49.234;7.268;2022-08-25T05:27:57;13.40;99.90
11079;DHT22;5592;49.234;7.268;2022-08-25T05:30:23;13.50;99.90
11079;DHT22;5592;49.234;7.268;2022-08-25T05:32:51;13.60;99.90
11079;DHT22;5592;49.234;7.268;2022-08-25T05:35:17;13.70;99.90
11079;DHT22;5592;49.234;7.268;2022-08-25T05:37:45;13.90;99.90
11079;DHT22;5592;49.234;7.268;2022-08-25T05:40:11;14.00;99.90
11079;DHT22;5592;49.234;7.268;2022-08-25T05:42:37;14.20;99.90
11079;DHT22;5592;49.234;7.268;2022-08-25T05:45:04;14.30;99.90
11079;DHT22;5592;49.234;7.268;2022-08-25T05:47:30;14.50;99.90
11079;DHT22;5592;49.234;7.268;2022-08-25T05:49:56;14.70;99.90
11079;DHT22;5592;49.234;7.268;2022-08-25T05:52:22;14.80;99.90
11079;DHT22;5592;49.234;7.268;2022-08-25T05:54:48;15.10;99.90
11079;DHT22;5592;49.234;7.268;2022-08-25T05:57:14;15.40;99.90
11079;DHT22;5592;49.234;7.268;2022-08-25T05:59:39;15.60;99.90
11079;DHT22;5592;49.234;7.268;2022-08-25T06:02:05;15.80;99.90
11079;DHT22;5592;49.234;7.268;2022-08-25T06:04:49;16.00;99.90
11079;DHT22;5592;49.234;7.268;2022-08-25T06:07:16;16.20;99.90
11079;DHT22;5592;49.234;7.268;2022-08-25T06:09:42;16.40;99.90
11079;DHT22;5592;49.234;7.268;2022-08-25T06:12:10;16.80;99.90
11079;DHT22;5592;49.234;7.268;2022-08-25T06:14:36;17.40;99.90
11079;DHT22;5592;49.234;7.268;2022-08-25T06:17:02;18.00;99.90
11079;DHT22;5592;49.234;7.268;2022-08-25T06:19:29;18.60;99.90
11079;DHT22;5592;49.234;7.268;2022-08-25T06:21:56;19.80;99.90
11079;DHT22;5592;49.234;7.268;2022-08-25T06:24:23;21.50;99.90
11079;DHT22;5592;49.234;7.268;2022-08-25T06:26:49;23.30;99.90
11079;DHT22;5592;49.234;7.268;2022-08-25T06:29:15;24.90;99.90
11079;DHT22;5592;49.234;7.268;2022-08-25T06:31:42;26.50;99.90
11079;DHT22;5592;49.234;7.268;2022-08-25T06:34:08;27.70;99.90
11079;DHT22;5592;49.234;7.268;2022-08-25T06:36:34;28.90;99.90
11079;DHT22;5592;49.234;7.268;2022-08-25T06:39:00;30.30;99.90
11079;DHT22;5592;49.234;7.268;2022-08-25T06:41:25;31.30;99.90
11079;DHT22;5592;49.234;7.268;2022-08-25T06:43:51;31.80;98.10
11079;DHT22;5592;49.234;7.268;2022-08-25T06:46:22;32.50;95.50
11079;DHT22;5592;49.234;7.268;2022-08-25T06:48:48;32.90;93.70
11079;DHT22;5592;49.234;7.268;2022-08-25T06:51:16;33.10;91.80
11079;DHT22;5592;49.234;7.268;2022-08-25T06:53:43;33.60;90.50
11079;DHT22;5592;49.234;7.268;2022-08-25T06:56:10;34.40;88.40
11079;DHT22;5592;49.234;7.268;2022-08-25T06:58:37;35.10;85.00
11079;DHT22;5592;49.234;7.268;2022-08-25T07:03:42;35.90;79.70
11079;DHT22;5592;49.234;7.268;2022-08-25T07:06:08;36.00;78.00
11079;DHT22;5592;49.234;7.268;2022-08-25T07:08:34;36.30;77.70
11079;DHT22;5592;49.234;7.268;2022-08-25T07:11:08;36.30;75.20
11079;DHT22;5592;49.234;7.268;2022-08-25T07:13:34;36.60;74.70
11079;DHT22;5592;49.234;7.268;2022-08-25T07:16:01;36.60;74.80
11079;DHT22;5592;49.234;7.268;2022-08-25T07:18:30;37.20;72.60
11079;DHT22;5592;49.234;7.268;2022-08-25T07:20:56;37.40;72.80
11079;DHT22;5592;49.234;7.268;2022-08-25T07:23:23;37.80;71.90
11079;DHT22;5592;49.234;7.268;2022-08-25T07:25:49;37.70;71.00
11079;DHT22;5592;49.234;7.268;2022-08-25T07:28:15;37.80;70.20
11079;DHT22;5592;49.234;7.268;2022-08-25T07:30:42;38.20;69.10
11079;DHT22;5592;49.234;7.268;2022-08-25T07:33:08;38.60;67.50
11079;DHT22;5592;49.234;7.268;2022-08-25T07:35:33;38.90;65.90
11079;DHT22;5592;49.234;7.268;2022-08-25T07:38:00;39.10;65.40
11079;DHT22;5592;49.234;7.268;2022-08-25T07:40:31;39.10;65.30
11079;DHT22;5592;49.234;7.268;2022-08-25T07:43:00;39.50;64.70
11079;DHT22;5592;49.234;7.268;2022-08-25T07:45:29;39.90;64.40
11079;DHT22;5592;49.234;7.268;2022-08-25T07:48:07;40.10;62.30
11079;DHT22;5592;49.234;7.268;2022-08-25T07:50:34;40.40;60.40
11079;DHT22;5592;49.234;7.268;2022-08-25T07:53:03;40.60;60.30
11079;DHT22;5592;49.234;7.268;2022-08-25T07:55:30;40.40;60.50
11079;DHT22;5592;49.234;7.268;2022-08-25T07:58:02;40.80;59.60
11079;DHT22;5592;49.234;7.268;2022-08-25T08:00:29;40.80;59.90
11079;DHT22;5592;49.234;7.268;2022-08-25T08:02:59;41.30;58.30
11079;DHT22;5592;49.234;7.268;2022-08-25T08:05:26;41.50;57.20
11079;DHT22;5592;49.234;7.268;2022-08-25T08:07:53;41.40;57.60
11079;DHT22;5592;49.234;7.268;2022-08-25T08:10:19;41.50;56.80
11079;DHT22;5592;49.234;7.268;2022-08-25T08:12:45;41.90;55.70
11079;DHT22;5592;49.234;7.268;2022-08-25T08:15:11;41.50;56.10
11079;DHT22;5592;49.234;7.268;2022-08-25T08:17:38;41.20;56.00
11079;DHT22;5592;49.234;7.268;2022-08-25T08:20:05;41.50;56.10
11079;DHT22;5592;49.234;7.268;2022-08-25T08:22:34;42.00;55.50
11079;DHT22;5592;49.234;7.268;2022-08-25T08:25:00;41.40;55.00
11079;DHT22;5592;49.234;7.268;2022-08-25T08:27:26;41.10;56.00
11079;DHT22;5592;49.234;7.268;2022-08-25T08:29:51;41.40;55.40
11079;DHT22;5592;49.234;7.268;2022-08-25T08:32:18;42.00;54.30
11079;DHT22;5592;49.234;7.268;2022-08-25T08:34:45;41.80;54.40
11079;DHT22;5592;49.234;7.268;2022-08-25T08:37:12;42.30;53.80
11079;DHT22;5592;49.234;7.268;2022-08-25T08:39:38;42.00;54.00
11079;DHT22;5592;49.234;7.268;2022-08-25T08:50:15;41.90;52.30
11079;DHT22;5592;49.234;7.268;2022-08-25T08:52:47;40.20;53.60
11079;DHT22;5592;49.234;7.268;2022-08-25T08:55:56;38.60;55.50
11079;DHT22;5592;49.234;7.268;2022-08-25T08:58:23;39.10;54.80
11079;DHT22;5592;49.234;7.268;2022-08-25T09:00:53;38.80;55.50
11079;DHT22;5592;49.234;7.268;2022-08-25T09:03:39;39.80;54.10
11079;DHT22;5592;49.234;7.268;2022-08-25T09:06:11;40.20;53.80
11079;DHT22;5592;49.234;7.268;2022-08-25T09:08:39;40.90;52.70
11079;DHT22;5592;49.234;7.268;2022-08-25T09:11:22;40.50;53.00
11079;DHT22;5592;49.234;7.268;2022-08-25T09:17:05;40.30;52.80
11079;DHT22;5592;49.234;7.268;2022-08-25T09:25:21;41.30;52.00
11079;DHT22;5592;49.234;7.268;2022-08-25T09:28:03;41.10;51.10
11079;DHT22;5592;49.234;7.268;2022-08-25T09:31:01;40.60;51.90
11079;DHT22;5592;49.234;7.268;2022-08-25T09:33:29;41.10;51.60
11079;DHT22;5592;49.234;7.268;2022-08-25T09:35:56;40.40;51.70
11079;DHT22;5592;49.234;7.268;2022-08-25T09:38:23;40.40;51.50
11079;DHT22;5592;49.234;7.268;2022-08-25T09:40:52;40.70;51.40
11079;DHT22;5592;49.234;7.268;2022-08-25T09:46:15;40.70;51.70
11079;DHT22;5592;49.234;7.268;2022-08-25T09:48:52;40.90;50.80
11079;DHT22;5592;49.234;7.268;2022-08-25T09:56:29;40.80;49.70
11079;DHT22;5592;49.234;7.268;2022-08-25T09:59:20;40.40;49.70
11079;DHT22;5592;49.234;7.268;2022-08-25T10:01:48;39.90;50.60
11079;DHT22;5592;49.234;7.268;2022-08-25T10:06:58;39.30;50.40
11079;DHT22;5592;49.234;7.268;2022-08-25T10:09:33;39.50;50.20
11079;DHT22;5592;49.234;7.268;2022-08-25T10:12:00;39.40;50.80
11079;DHT22;5592;49.234;7.268;2022-08-25T10:14:34;38.90;51.60
11079;DHT22;5592;49.234;7.268;2022-08-25T10:17:16;38.50;51.00
11079;DHT22;5592;49.234;7.268;2022-08-25T10:22:33;39.50;51.00
11079;DHT22;5592;49.234;7.268;2022-08-25T10:24:59;39.60;48.40
11079;DHT22;5592;49.234;7.268;2022-08-25T10:30:22;37.90;50.20
11079;DHT22;5592;49.234;7.268;2022-08-25T10:36:00;37.40;52.70
11079;DHT22;5592;49.234;7.268;2022-08-25T10:38:37;37.50;51.20
11079;DHT22;5592;49.234;7.268;2022-08-25T10:43:56;36.10;51.70
11079;DHT22;5592;49.234;7.268;2022-08-25T10:49:32;35.60;53.00
11079;DHT22;5592;49.234;7.268;2022-08-25T10:52:15;35.50;52.80
11079;DHT22;5592;49.234;7.268;2022-08-25T10:54:56;35.30;52.80
11079;DHT22;5592;49.234;7.268;2022-08-25T10:57:33;36.00;52.60
11079;DHT22;5592;49.234;7.268;2022-08-25T11:00:14;36.30;52.00
11079;DHT22;5592;49.234;7.268;2022-08-25T11:05:46;36.60;51.50
11079;DHT22;5592;49.234;7.268;2022-08-25T11:08:40;35.70;52.90
11079;DHT22;5592;49.234;7.268;2022-08-25T11:11:41;36.40;52.20
11079;DHT22;5592;49.234;7.268;2022-08-25T11:14:18;36.50;52.00
11079;DHT22;5592;49.234;7.268;2022-08-25T11:16:52;36.10;52.30
11079;DHT22;5592;49.234;7.268;2022-08-25T11:19:33;36.10;52.20
11079;DHT22;5592;49.234;7.268;2022-08-25T11:27:21;35.00;53.00
11079;DHT22;5592;49.234;7.268;2022-08-25T11:30:09;34.50;53.80
11079;DHT22;5592;49.234;7.268;2022-08-25T11:32:38;34.30;53.90
11079;DHT22;5592;49.234;7.268;2022-08-25T11:35:09;33.80;54.60
11079;DHT22;5592;49.234;7.268;2022-08-25T11:37:44;34.00;54.40
11079;DHT22;5592;49.234;7.268;2022-08-25T11:46:08;33.50;54.70
11079;DHT22;5592;49.234;7.268;2022-08-25T11:51:43;33.70;54.90
11079;DHT22;5592;49.234;7.268;2022-08-25T12:23:34;33.40;54.70
11079;DHT22;5592;49.234;7.268;2022-08-25T12:26:30;33.00;55.50
11079;DHT22;5592;49.234;7.268;2022-08-25T12:29:23;32.90;55.50
11079;DHT22;5592;49.234;7.268;2022-08-25T12:37:23;32.70;56.00
11079;DHT22;5592;49.234;7.268;2022-08-25T12:47:41;32.70;56.10
11079;DHT22;5592;49.234;7.268;2022-08-25T12:50:40;32.60;56.80
11079;DHT22;5592;49.234;7.268;2022-08-25T12:55:58;32.80;56.30
11079;DHT22;5592;49.234;7.268;2022-08-25T12:58:32;32.50;56.30
11079;DHT22;5592;49.234;7.268;2022-08-25T13:01:25;32.30;56.00
11079;DHT22;5592;49.234;7.268;2022-08-25T13:15:31;31.80;58.20
11079;DHT22;5592;49.234;7.268;2022-08-25T13:18:16;32.00;57.20
11079;DHT22;5592;49.234;7.268;2022-08-25T13:20:44;32.10;56.70
11079;DHT22;5592;49.234;7.268;2022-08-25T13:23:10;31.70;56.90
11079;DHT22;5592;49.234;7.268;2022-08-25T13:25:49;31.60;57.00
11079;DHT22;5592;49.234;7.268;2022-08-25T13:28:35;31.70;56.70
11079;DHT22;5592;49.234;7.268;2022-08-25T13:31:14;31.60;56.90
11079;DHT22;5592;49.234;7.268;2022-08-25T13:33:53;31.70;57.00
11079;DHT22;5592;49.234;7.268;2022-08-25T13:36:20;31.30;58.30
11079;DHT22;5592;49.234;7.268;2022-08-25T13:39:21;31.30;58.10
11079;DHT22;5592;49.234;7.268;2022-08-25T13:41:54;31.50;58.30
11079;DHT22;5592;49.234;7.268;2022-08-25T13:44:22;31.60;57.60
11079;DHT22;5592;49.234;7.268;2022-08-25T13:47:05;31.70;57.30
11079;DHT22;5592;49.234;7.268;2022-08-25T13:49:31;31.80;57.30
11079;DHT22;5592;49.234;7.268;2022-08-25T13:51:58;31.90;56.80
11079;DHT22;5592;49.234;7.268;2022-08-25T13:54:30;31.90;57.70
11079;DHT22;5592;49.234;7.268;2022-08-25T13:57:23;31.80;57.20
11079;DHT22;5592;49.234;7.268;2022-08-25T13:59:53;31.30;57.50
11079;DHT22;5592;49.234;7.268;2022-08-25T14:02:47;31.20;58.30
11079;DHT22;5592;49.234;7.268;2022-08-25T14:05:14;31.10;58.90
11079;DHT22;5592;49.234;7.268;2022-08-25T14:07:55;31.10;58.70
11079;DHT22;5592;49.234;7.268;2022-08-25T14:10:42;31.10;59.00
11079;DHT22;5592;49.234;7.268;2022-08-25T14:15:51;31.30;58.30
11079;DHT22;5592;49.234;7.268;2022-08-25T14:18:20;31.10;58.80
11079;DHT22;5592;49.234;7.268;2022-08-25T14:20:48;30.90;59.00
11079;DHT22;5592;49.234;7.268;2022-08-25T14:23:20;31.00;59.40
11079;DHT22;5592;49.234;7.268;2022-08-25T14:25:49;31.00;59.40
11079;DHT22;5592;49.234;7.268;2022-08-25T14:28:18;31.20;59.30
11079;DHT22;5592;49.234;7.268;2022-08-25T14:30:52;31.30;58.20
11079;DHT22;5592;49.234;7.268;2022-08-25T14:33:21;31.30;59.10
11079;DHT22;5592;49.234;7.268;2022-08-25T14:35:50;31.30;59.30
11079;DHT22;5592;49.234;7.268;2022-08-25T14:38:18;31.30;59.20
11079;DHT22;5592;49.234;7.268;2022-08-25T14:40:44;31.20;59.10
11079;DHT22;5592;49.234;7.268;2022-08-25T14:43:11;31.10;59.10
11079;DHT22;5592;49.234;7.268;2022-08-25T14:45:44;31.20;59.40
11079;DHT22;5592;49.234;7.268;2022-08-25T14:48:34;31.20;59.20
11079;DHT22;5592;49.234;7.268;2022-08-25T14:51:02;31.20;59.20
11079;DHT22;5592;49.234;7.268;2022-08-25T14:53:28;31.00;59.80
11079;DHT22;5592;49.234;7.268;2022-08-25T14:55:54;31.00;59.50
11079;DHT22;5592;49.234;7.268;2022-08-25T14:58:21;31.00;59.60
11079;DHT22;5592;49.234;7.268;2022-08-25T15:00:47;30.90;59.30
11079;DHT22;5592;49.234;7.268;2022-08-25T15:03:16;30.70;59.40
11079;DHT22;5592;49.234;7.268;2022-08-25T15:05:43;30.70;59.90
11079;DHT22;5592;49.234;7.268;2022-08-25T15:08:09;30.90;59.70
11079;DHT22;5592;49.234;7.268;2022-08-25T15:10:54;30.80;59.60
11079;DHT22;5592;49.234;7.268;2022-08-25T15:13:20;30.70;59.90
11079;DHT22;5592;49.234;7.268;2022-08-25T15:15:46;30.50;60.60
11079;DHT22;5592;49.234;7.268;2022-08-25T15:18:12;30.60;60.20
11079;DHT22;5592;49.234;7.268;2022-08-25T15:20:38;30.60;60.20
11079;DHT22;5592;49.234;7.268;2022-08-25T15:23:03;30.60;60.00
11079;DHT22;5592;49.234;7.268;2022-08-25T15:25:29;30.50;60.00
11079;DHT22;5592;49.234;7.268;2022-08-25T15:27:55;30.70;60.00
11079;DHT22;5592;49.234;7.268;2022-08-25T15:30:21;30.70;59.40
11079;DHT22;5592;49.234;7.268;2022-08-25T15:32:46;30.70;59.10
11079;DHT22;5592;49.234;7.268;2022-08-25T15:35:13;30.80;59.20
11079;DHT22;5592;49.234;7.268;2022-08-25T15:37:39;30.80;59.30
11079;DHT22;5592;49.234;7.268;2022-08-25T15:40:05;30.70;58.80
11079;DHT22;5592;49.234;7.268;2022-08-25T15:42:32;30.60;59.00
11079;DHT22;5592;49.234;7.268;2022-08-25T15:44:57;30.70;58.80
11079;DHT22;5592;49.234;7.268;2022-08-25T15:47:23;30.60;59.40
11079;DHT22;5592;49.234;7.268;2022-08-25T15:49:49;30.50;59.20
11079;DHT22;5592;49.234;7.268;2022-08-25T15:52:15;30.50;59.20
11079;DHT22;5592;49.234;7.268;2022-08-25T15:54:41;30.60;59.10
11079;DHT22;5592;49.234;7.268;2022-08-25T15:57:07;30.60;59.00
11079;DHT22;5592;49.234;7.268;2022-08-25T15:59:32;30.60;59.00
11079;DHT22;5592;49.234;7.268;2022-08-25T16:01:58;30.60;59.80
11079;DHT22;5592;49.234;7.268;2022-08-25T16:04:26;30.60;59.70
11079;DHT22;5592;49.234;7.268;2022-08-25T16:06:52;30.70;60.10
11079;DHT22;5592;49.234;7.268;2022-08-25T16:09:20;30.70;59.80
11079;DHT22;5592;49.234;7.268;2022-08-25T16:11:45;30.80;59.40
11079;DHT22;5592;49.234;7.268;2022-08-25T16:14:12;30.70;59.50
11079;DHT22;5592;49.234;7.268;2022-08-25T16:16:39;30.80;59.60
11079;DHT22;5592;49.234;7.268;2022-08-25T16:19:06;30.70;60.00
11079;DHT22;5592;49.234;7.268;2022-08-25T16:21:33;30.60;60.10
11079;DHT22;5592;49.234;7.268;2022-08-25T16:24:02;30.60;60.10
11079;DHT22;5592;49.234;7.268;2022-08-25T16:26:32;30.70;60.20
11079;DHT22;5592;49.234;7.268;2022-08-25T16:28:59;30.60;60.50
11079;DHT22;5592;49.234;7.268;2022-08-25T16:31:25;30.40;61.00
11079;DHT22;5592;49.234;7.268;2022-08-25T16:33:51;30.30;61.30
11079;DHT22;5592;49.234;7.268;2022-08-25T16:36:22;30.30;61.30
11079;DHT22;5592;49.234;7.268;2022-08-25T16:38:48;30.20;61.00
11079;DHT22;5592;49.234;7.268;2022-08-25T16:41:23;30.20;61.10
11079;DHT22;5592;49.234;7.268;2022-08-25T16:43:49;30.20;61.30
11079;DHT22;5592;49.234;7.268;2022-08-25T16:46:17;30.10;61.10
11079;DHT22;5592;49.234;7.268;2022-08-25T16:48:47;30.10;60.80
11079;DHT22;5592;49.234;7.268;2022-08-25T16:51:17;30.10;62.20
11079;DHT22;5592;49.234;7.268;2022-08-25T16:53:43;30.00;61.60
11079;DHT22;5592;49.234;7.268;2022-08-25T16:56:29;30.00;61.10
11079;DHT22;5592;49.234;7.268;2022-08-25T16:58:56;29.90;61.70
11079;DHT22;5592;49.234;7.268;2022-08-25T17:01:23;30.00;61.80
11079;DHT22;5592;49.234;7.268;2022-08-25T17:03:55;30.00;61.80
11079;DHT22;5592;49.234;7.268;2022-08-25T17:06:23;29.90;62.70
11079;DHT22;5592;49.234;7.268;2022-08-25T17:08:49;29.80;61.80
11079;DHT22;5592;49.234;7.268;2022-08-25T17:11:21;29.70;62.00
11079;DHT22;5592;49.234;7.268;2022-08-25T17:13:50;29.60;62.10
11079;DHT22;5592;49.234;7.268;2022-08-25T17:16:18;29.50;62.10
11079;DHT22;5592;49.234;7.268;2022-08-25T17:18:44;29.60;61.60
11079;DHT22;5592;49.234;7.268;2022-08-25T17:21:11;29.60;61.70
11079;DHT22;5592;49.234;7.268;2022-08-25T17:23:39;29.40;62.10
11079;DHT22;5592;49.234;7.268;2022-08-25T17:26:07;29.30;61.80
11079;DHT22;5592;49.234;7.268;2022-08-25T17:28:36;29.30;61.50
11079;DHT22;5592;49.234;7.268;2022-08-25T17:31:02;29.30;62.30
11079;DHT22;5592;49.234;7.268;2022-08-25T17:33:27;29.20;62.40
11079;DHT22;5592;49.234;7.268;2022-08-25T17:35:55;29.10;63.10
11079;DHT22;5592;49.234;7.268;2022-08-25T17:38:24;29.00;63.60
11079;DHT22;5592;49.234;7.268;2022-08-25T17:40:58;28.90;63.80
11079;DHT22;5592;49.234;7.268;2022-08-25T17:43:25;28.70;65.90
11079;DHT22;5592;49.234;7.268;2022-08-25T17:45:53;28.40;67.50
11079;DHT22;5592;49.234;7.268;2022-08-25T17:48:25;28.30;66.00
11079;DHT22;5592;49.234;7.268;2022-08-25T17:50:51;28.10;66.60
11079;DHT22;5592;49.234;7.268;2022-08-25T17:53:17;28.00;70.50
11079;DHT22;5592;49.234;7.268;2022-08-25T17:55:44;27.70;69.10
11079;DHT22;5592;49.234;7.268;2022-08-25T17:58:12;27.60;73.40
11079;DHT22;5592;49.234;7.268;2022-08-25T18:00:38;27.30;74.10
11079;DHT22;5592;49.234;7.268;2022-08-25T18:03:05;27.00;74.60